PWSweather.com
Personal Weather Stations
Station Observations
DW0493
Castlewood Ranch, Castle Rock, CO

Castlewood RanchCastle Rock, CO

Lat: 39.36264, Lon: -104.79156

Elevation: 6608

Station Type: Davis Pro Vantage 2

http://www.castlerockweather.org

Latest ConditionsUpdated 3:15:03 PM MDT Sunday, May 1, 2016
Currently Today's Max Today's Min Today's Average
Temperature 31.7°F-0.2°C 34.9°F1.6°C 28.1°F-2.2°C 30.0°F-1.1°C
Dew Point 28.3°F-2.1°C 30.7°F-0.7°C 26.1°F-3.3°C 27.6°F-2.4°C
Winds 1.0 mph NE1.6 kmh NE 13.0 mph WNW20.9 kmh WNW - 4.1 mph 6.6 kmh
Wind Gusts 1.0 mph1.6 kmh 13.0 mph20.9 kmh - -
Humidity 87% 93% 82% 91%
Pressure 24.79 in839.5 mb 24.79 in839.5 mb 17.94 in607.5 mb -
Hour Temp Dew Point Humidity Winds Wind Gusts Pressure Precip Precip Rate Daily Precip Total
03:15 PM 31.7°F-0.2°C 28.3°F-2.1°C 87% 1.0 mph NE1.6 kmh NE 1.0 mph1.6 kmh 24.79 in839.5 mb 0.00 in0.0 mm 0.00 in0.0 mm 0.01 in0.3 mm
03:10 PM 31.7°F-0.2°C 28.3°F-2.1°C 87% Calm Calm -- 24.79 in839.5 mb 0.00 in0.0 mm 0.00 in0.0 mm 0.01 in0.3 mm
03:05 PM 31.6°F-0.2°C 28.2°F-2.1°C 87% 2.0 mph NE3.2 kmh NE 4.0 mph6.4 kmh 24.79 in839.5 mb 0.00 in0.0 mm 0.00 in0.0 mm 0.01 in0.3 mm
03:00 PM 31.5°F-0.3°C 28.1°F-2.2°C 87% 1.0 mph NE1.6 kmh NE 5.0 mph8.0 kmh 24.79 in839.5 mb 0.00 in0.0 mm 0.00 in0.0 mm 0.01 in0.3 mm
02:55 PM 31.3°F-0.4°C 27.9°F-2.3°C 87% 4.0 mph NE6.4 kmh NE 4.0 mph6.4 kmh 24.79 in839.5 mb 0.00 in0.0 mm 0.00 in0.0 mm 0.01 in0.3 mm
02:50 PM 31.1°F-0.5°C 27.7°F-2.4°C 87% 1.0 mph NE1.6 kmh NE 2.0 mph3.2 kmh 24.79 in839.5 mb 0.00 in0.0 mm 0.00 in0.0 mm 0.01 in0.3 mm
02:45 PM 31.0°F-0.6°C 27.3°F-2.6°C 86% 4.0 mph NE6.4 kmh NE 4.0 mph6.4 kmh 24.79 in839.5 mb 0.00 in0.0 mm 0.00 in0.0 mm 0.01 in0.3 mm
02:40 PM 31.2°F-0.4°C 27.5°F-2.5°C 86% 5.0 mph NE8.0 kmh NE 5.0 mph8.0 kmh 24.79 in839.5 mb 0.00 in0.0 mm 0.00 in0.0 mm 0.01 in0.3 mm
02:35 PM 31.5°F-0.3°C 27.8°F-2.3°C 86% 5.0 mph NE8.0 kmh NE 5.0 mph8.0 kmh 24.79 in839.5 mb 0.00 in0.0 mm 0.00 in0.0 mm 0.01 in0.3 mm
02:30 PM 31.6°F-0.2°C 27.6°F-2.4°C 85% 6.0 mph NE9.7 kmh NE 6.0 mph9.7 kmh 24.79 in839.5 mb 0.00 in0.0 mm 0.00 in0.0 mm 0.01 in0.3 mm
02:25 PM 32.0°F0.0°C 28.0°F-2.2°C 85% 7.0 mph NE11.3 kmh NE 10.0 mph16.1 kmh 24.79 in839.5 mb 0.00 in0.0 mm 0.00 in0.0 mm 0.01 in0.3 mm
02:20 PM 32.4°F0.2°C 28.4°F-2.0°C 85% 8.0 mph NE12.9 kmh NE 10.0 mph16.1 kmh 24.79 in839.5 mb 0.00 in0.0 mm 0.00 in0.0 mm 0.01 in0.3 mm
02:15 PM 32.6°F0.3°C 28.9°F-1.7°C 86% 5.0 mph NNE8.0 kmh NNE 9.0 mph14.5 kmh 24.79 in839.5 mb 0.00 in0.0 mm 0.00 in0.0 mm 0.01 in0.3 mm
02:10 PM 32.6°F0.3°C 28.9°F-1.7°C 86% Calm Calm -- 24.79 in839.5 mb 0.00 in0.0 mm 0.00 in0.0 mm 0.01 in0.3 mm
02:05 PM 32.6°F0.3°C 28.6°F-1.9°C 85% 3.0 mph N4.8 kmh N 3.0 mph4.8 kmh 24.79 in839.5 mb 0.00 in0.0 mm 0.00 in0.0 mm 0.01 in0.3 mm
02:00 PM 32.6°F0.3°C 28.6°F-1.9°C 85% 8.0 mph NNE12.9 kmh NNE 8.0 mph12.9 kmh 24.79 in839.5 mb 0.00 in0.0 mm 0.00 in0.0 mm 0.01 in0.3 mm
01:55 PM 32.5°F0.3°C 28.5°F-1.9°C 85% 9.0 mph NNE14.5 kmh NNE 9.0 mph14.5 kmh 24.79 in839.5 mb 0.00 in0.0 mm 0.00 in0.0 mm 0.01 in0.3 mm
01:50 PM 32.6°F0.3°C 28.3°F-2.1°C 84% 7.0 mph NE11.3 kmh NE 7.0 mph11.3 kmh 24.79 in839.5 mb 0.00 in0.0 mm 0.00 in0.0 mm 0.01 in0.3 mm
01:45 PM 33.9°F1.1°C 29.0°F-1.7°C 82% 8.0 mph NE12.9 kmh NE 10.0 mph16.1 kmh 24.79 in839.5 mb 0.00 in0.0 mm 0.00 in0.0 mm 0.01 in0.3 mm
01:40 PM 34.9°F1.6°C 30.6°F-0.8°C 84% 6.0 mph NNE9.7 kmh NNE 6.0 mph9.7 kmh 24.79 in839.5 mb 0.00 in0.0 mm 0.00 in0.0 mm 0.01 in0.3 mm
01:35 PM 34.7°F1.5°C 30.7°F-0.7°C 85% 7.0 mph NNE11.3 kmh NNE 7.0 mph11.3 kmh 24.79 in839.5 mb 0.00 in0.0 mm 0.00 in0.0 mm 0.01 in0.3 mm
01:30 PM 34.4°F1.3°C 30.4°F-0.9°C 85% 1.0 mph N1.6 kmh N 4.0 mph6.4 kmh 24.79 in839.5 mb 0.00 in0.0 mm 0.00 in0.0 mm 0.01 in0.3 mm
01:25 PM 34.4°F1.3°C 30.4°F-0.9°C 85% 2.0 mph N3.2 kmh N 4.0 mph6.4 kmh 24.79 in839.5 mb 0.00 in0.0 mm 0.00 in0.0 mm 0.01 in0.3 mm
01:20 PM 34.4°F1.3°C 30.4°F-0.9°C 85% 4.0 mph N6.4 kmh N 4.0 mph6.4 kmh 24.79 in839.5 mb 0.00 in0.0 mm 0.00 in0.0 mm 0.01 in0.3 mm
01:15 PM 34.3°F1.3°C 30.6°F-0.8°C 86% 5.0 mph NNE8.0 kmh NNE 5.0 mph8.0 kmh 24.79 in839.5 mb 0.00 in0.0 mm 0.00 in0.0 mm 0.01 in0.3 mm
01:10 PM 34.1°F1.2°C 30.4°F-0.9°C 86% 6.0 mph NNE9.7 kmh NNE 7.0 mph11.3 kmh 24.79 in839.5 mb 0.01 in0.3 mm 0.00 in0.0 mm 0.01 in0.3 mm
01:05 PM 34.1°F1.2°C 30.4°F-0.9°C 86% 4.0 mph N6.4 kmh N 6.0 mph9.7 kmh 24.79 in839.5 mb 0.01 in0.3 mm 0.00 in0.0 mm 0.01 in0.3 mm
01:00 PM 34.3°F1.3°C 30.6°F-0.8°C 86% 3.0 mph N4.8 kmh N 3.0 mph4.8 kmh 24.79 in839.5 mb 0.01 in0.3 mm 0.00 in0.0 mm 0.01 in0.3 mm
12:55 PM 34.3°F1.3°C 30.6°F-0.8°C 86% 6.0 mph N9.7 kmh N 6.0 mph9.7 kmh 24.79 in839.5 mb 0.01 in0.3 mm 0.00 in0.0 mm 0.01 in0.3 mm
12:50 PM 34.2°F1.2°C 30.5°F-0.8°C 86% 3.0 mph NNE4.8 kmh NNE 3.0 mph4.8 kmh 24.79 in839.5 mb 0.01 in0.3 mm 0.00 in0.0 mm 0.01 in0.3 mm
12:45 PM 34.2°F1.2°C 30.7°F-0.7°C 87% 5.0 mph N8.0 kmh N 5.0 mph8.0 kmh 24.79 in839.5 mb 0.01 in0.3 mm 0.00 in0.0 mm 0.01 in0.3 mm
12:40 PM 34.1°F1.2°C 30.6°F-0.8°C 87% 7.0 mph NNE11.3 kmh NNE 7.0 mph11.3 kmh 24.79 in839.5 mb 0.01 in0.3 mm 0.00 in0.0 mm 0.01 in0.3 mm
12:35 PM 34.1°F1.2°C 30.6°F-0.8°C 87% 2.0 mph N3.2 kmh N 2.0 mph3.2 kmh 24.79 in839.5 mb 0.01 in0.3 mm 0.00 in0.0 mm 0.01 in0.3 mm
12:30 PM 33.7°F0.9°C 30.5°F-0.8°C 88% 7.0 mph NNE11.3 kmh NNE 7.0 mph11.3 kmh 24.79 in839.5 mb 0.01 in0.3 mm 0.00 in0.0 mm 0.01 in0.3 mm
12:25 PM 33.3°F0.7°C 30.1°F-1.1°C 88% 4.0 mph N6.4 kmh N 5.0 mph8.0 kmh 24.79 in839.5 mb 0.01 in0.3 mm 0.00 in0.0 mm 0.01 in0.3 mm
12:20 PM 33.2°F0.7°C 30.0°F-1.1°C 88% 3.0 mph NNE4.8 kmh NNE 8.0 mph12.9 kmh 24.79 in839.5 mb 0.01 in0.3 mm 0.00 in0.0 mm 0.01 in0.3 mm
12:15 PM 33.2°F0.7°C 30.0°F-1.1°C 88% Calm Calm 9.0 mph14.5 kmh 24.79 in839.5 mb 0.01 in0.3 mm 0.12 in3.0 mm 0.01 in0.3 mm
12:10 PM 33.2°F0.7°C 30.3°F-0.9°C 89% 1.0 mph NW1.6 kmh NW 6.0 mph9.7 kmh 24.79 in839.5 mb 0.00 in0.0 mm 0.00 in0.0 mm 0.00 in0.0 mm
12:05 PM 33.2°F0.7°C 30.3°F-0.9°C 89% Calm Calm 6.0 mph9.7 kmh 24.79 in839.5 mb 0.00 in0.0 mm 0.00 in0.0 mm 0.00 in0.0 mm
12:00 PM 33.0°F0.6°C 30.1°F-1.1°C 89% 1.0 mph N1.6 kmh N 7.0 mph11.3 kmh 24.79 in839.5 mb 0.00 in0.0 mm 0.00 in0.0 mm 0.00 in0.0 mm
11:55 AM 32.9°F0.5°C 30.0°F-1.1°C 89% 2.0 mph NNE3.2 kmh NNE 11.0 mph17.7 kmh 24.79 in839.5 mb 0.00 in0.0 mm 0.00 in0.0 mm 0.00 in0.0 mm
11:50 AM 32.8°F0.4°C 29.9°F-1.2°C 89% 4.0 mph N6.4 kmh N 11.0 mph17.7 kmh 24.79 in839.5 mb 0.00 in0.0 mm 0.00 in0.0 mm 0.00 in0.0 mm
11:45 AM 32.7°F0.4°C 30.1°F-1.1°C 90% 1.0 mph N1.6 kmh N 6.0 mph9.7 kmh 24.79 in839.5 mb 0.00 in0.0 mm 0.00 in0.0 mm 0.00 in0.0 mm
11:40 AM 32.6°F0.3°C 30.0°F-1.1°C 90% 4.0 mph NNE6.4 kmh NNE 6.0 mph9.7 kmh 24.79 in839.5 mb 0.00 in0.0 mm 0.00 in0.0 mm 0.00 in0.0 mm
11:35 AM 32.4°F0.2°C 29.8°F-1.2°C 90% 2.0 mph N3.2 kmh N 6.0 mph9.7 kmh 24.79 in839.5 mb 0.00 in0.0 mm 0.00 in0.0 mm 0.00 in0.0 mm
11:30 AM 32.2°F0.1°C 29.6°F-1.3°C 90% Calm Calm 9.0 mph14.5 kmh 24.79 in839.5 mb 0.00 in0.0 mm 0.00 in0.0 mm 0.00 in0.0 mm
11:25 AM 32.1°F0.1°C 29.5°F-1.4°C 90% 6.0 mph NNE9.7 kmh NNE 9.0 mph14.5 kmh 24.79 in839.5 mb 0.00 in0.0 mm 0.00 in0.0 mm 0.00 in0.0 mm
11:20 AM 31.9°F-0.1°C 29.3°F-1.5°C 90% 6.0 mph N9.7 kmh N 6.0 mph9.7 kmh 24.79 in839.5 mb 0.00 in0.0 mm 0.00 in0.0 mm 0.00 in0.0 mm
11:15 AM 31.7°F-0.2°C 29.1°F-1.6°C 90% 4.0 mph NNE6.4 kmh NNE 11.0 mph17.7 kmh 24.79 in839.5 mb 0.00 in0.0 mm 0.00 in0.0 mm 0.00 in0.0 mm
11:10 AM 31.6°F-0.2°C 29.0°F-1.7°C 90% 11.0 mph NNE17.7 kmh NNE 11.0 mph17.7 kmh 24.79 in839.5 mb 0.00 in0.0 mm 0.00 in0.0 mm 0.00 in0.0 mm
11:05 AM 31.5°F-0.3°C 28.9°F-1.7°C 90% 3.0 mph NNE4.8 kmh NNE 8.0 mph12.9 kmh 24.79 in839.5 mb 0.00 in0.0 mm 0.00 in0.0 mm 0.00 in0.0 mm
11:00 AM 31.3°F-0.4°C 28.7°F-1.8°C 90% 4.0 mph NNE6.4 kmh NNE 7.0 mph11.3 kmh 24.79 in839.5 mb 0.00 in0.0 mm 0.00 in0.0 mm 0.00 in0.0 mm
10:55 AM 31.1°F-0.5°C 28.5°F-1.9°C 90% 4.0 mph NNE6.4 kmh NNE 9.0 mph14.5 kmh 24.79 in839.5 mb 0.00 in0.0 mm 0.00 in0.0 mm 0.00 in0.0 mm
10:50 AM 31.1°F-0.5°C 28.5°F-1.9°C 90% 2.0 mph N3.2 kmh N 9.0 mph14.5 kmh 24.79 in839.5 mb 0.00 in0.0 mm 0.00 in0.0 mm 0.00 in0.0 mm
10:45 AM 31.0°F-0.6°C 28.4°F-2.0°C 90% 7.0 mph N11.3 kmh N 11.0 mph17.7 kmh 24.79 in839.5 mb 0.00 in0.0 mm 0.00 in0.0 mm 0.00 in0.0 mm
10:40 AM 31.0°F-0.6°C 28.4°F-2.0°C 90% 3.0 mph NNE4.8 kmh NNE 10.0 mph16.1 kmh 24.79 in839.5 mb 0.00 in0.0 mm 0.00 in0.0 mm 0.00 in0.0 mm
10:35 AM 31.1°F-0.5°C 28.5°F-1.9°C 90% 10.0 mph NNE16.1 kmh NNE 13.0 mph20.9 kmh 24.79 in839.5 mb 0.00 in0.0 mm 0.00 in0.0 mm 0.00 in0.0 mm
10:30 AM 31.2°F-0.4°C 28.6°F-1.9°C 90% 6.0 mph N9.7 kmh N 12.0 mph19.3 kmh 24.79 in839.5 mb 0.00 in0.0 mm 0.00 in0.0 mm 0.00 in0.0 mm
10:25 AM 31.2°F-0.4°C 28.9°F-1.7°C 91% 3.0 mph N4.8 kmh N 5.0 mph8.0 kmh 24.79 in839.5 mb 0.00 in0.0 mm 0.00 in0.0 mm 0.00 in0.0 mm
10:20 AM 31.1°F-0.5°C 28.8°F-1.8°C 91% 5.0 mph N8.0 kmh N 9.0 mph14.5 kmh 24.79 in839.5 mb 0.00 in0.0 mm 0.00 in0.0 mm 0.00 in0.0 mm
10:15 AM 31.1°F-0.5°C 28.8°F-1.8°C 91% 2.0 mph N3.2 kmh N 10.0 mph16.1 kmh 24.79 in839.5 mb 0.00 in0.0 mm 0.00 in0.0 mm 0.00 in0.0 mm
10:10 AM 31.0°F-0.6°C 28.7°F-1.8°C 91% 2.0 mph NNE3.2 kmh NNE 6.0 mph9.7 kmh 24.79 in839.5 mb 0.00 in0.0 mm 0.00 in0.0 mm 0.00 in0.0 mm
10:05 AM 31.0°F-0.6°C 28.7°F-1.8°C 91% 2.0 mph NNE3.2 kmh NNE 10.0 mph16.1 kmh 24.79 in839.5 mb 0.00 in0.0 mm 0.00 in0.0 mm 0.00 in0.0 mm
10:00 AM 30.9°F-0.6°C 28.6°F-1.9°C 91% 5.0 mph N8.0 kmh N 10.0 mph16.1 kmh 24.79 in839.5 mb 0.00 in0.0 mm 0.00 in0.0 mm 0.00 in0.0 mm
09:55 AM 31.0°F-0.6°C 28.7°F-1.8°C 91% 3.0 mph NNE4.8 kmh NNE 8.0 mph12.9 kmh 24.79 in839.5 mb 0.00 in0.0 mm 0.00 in0.0 mm 0.00 in0.0 mm
09:50 AM 30.9°F-0.6°C 28.6°F-1.9°C 91% 3.0 mph N4.8 kmh N 7.0 mph11.3 kmh 24.79 in839.5 mb 0.00 in0.0 mm 0.00 in0.0 mm 0.00 in0.0 mm
09:45 AM 30.9°F-0.6°C 28.6°F-1.9°C 91% 5.0 mph N8.0 kmh N 11.0 mph17.7 kmh 24.79 in839.5 mb 0.00 in0.0 mm 0.00 in0.0 mm 0.00 in0.0 mm
09:40 AM 30.9°F-0.6°C 28.9°F-1.7°C 92% 4.0 mph N6.4 kmh N 8.0 mph12.9 kmh 24.79 in839.5 mb 0.00 in0.0 mm 0.00 in0.0 mm 0.00 in0.0 mm
09:35 AM 30.8°F-0.7°C 28.8°F-1.8°C 92% 5.0 mph N8.0 kmh N 6.0 mph9.7 kmh 24.79 in839.5 mb 0.00 in0.0 mm 0.00 in0.0 mm 0.00 in0.0 mm
09:30 AM 30.6°F-0.8°C 28.6°F-1.9°C 92% 3.0 mph N4.8 kmh N 8.0 mph12.9 kmh 24.79 in839.5 mb 0.00 in0.0 mm 0.00 in0.0 mm 0.00 in0.0 mm
09:25 AM 30.6°F-0.8°C 28.6°F-1.9°C 92% 4.0 mph N6.4 kmh N 9.0 mph14.5 kmh 24.79 in839.5 mb 0.00 in0.0 mm 0.00 in0.0 mm 0.00 in0.0 mm
09:20 AM 30.5°F-0.8°C 28.5°F-1.9°C 92% 4.0 mph NNE6.4 kmh NNE 11.0 mph17.7 kmh 24.79 in839.5 mb 0.00 in0.0 mm 0.00 in0.0 mm 0.00 in0.0 mm
09:15 AM 30.5°F-0.8°C 28.5°F-1.9°C 92% 4.0 mph NNE6.4 kmh NNE 9.0 mph14.5 kmh 24.79 in839.5 mb 0.00 in0.0 mm 0.00 in0.0 mm 0.00 in0.0 mm
09:10 AM 30.4°F-0.9°C 28.4°F-2.0°C 92% 3.0 mph NNE4.8 kmh NNE 11.0 mph17.7 kmh 24.79 in839.5 mb 0.00 in0.0 mm 0.00 in0.0 mm 0.00 in0.0 mm
09:05 AM 30.5°F-0.8°C 28.5°F-1.9°C 92% 7.0 mph NNE11.3 kmh NNE 9.0 mph14.5 kmh 24.79 in839.5 mb 0.00 in0.0 mm 0.00 in0.0 mm 0.00 in0.0 mm
09:00 AM 30.4°F-0.9°C 28.4°F-2.0°C 92% 3.0 mph N4.8 kmh N 12.0 mph19.3 kmh 24.79 in839.5 mb 0.00 in0.0 mm 0.00 in0.0 mm 0.00 in0.0 mm
08:55 AM 30.3°F-0.9°C 28.3°F-2.1°C 92% 3.0 mph N4.8 kmh N 10.0 mph16.1 kmh 24.79 in839.5 mb 0.00 in0.0 mm 0.00 in0.0 mm 0.00 in0.0 mm
08:50 AM 30.1°F-1.1°C 28.3°F-2.1°C 93% 4.0 mph N6.4 kmh N 12.0 mph19.3 kmh 24.79 in839.5 mb 0.00 in0.0 mm 0.00 in0.0 mm 0.00 in0.0 mm
08:45 AM 30.1°F-1.1°C 28.3°F-2.1°C 93% 5.0 mph N8.0 kmh N 9.0 mph14.5 kmh 24.79 in839.5 mb 0.00 in0.0 mm 0.00 in0.0 mm 0.00 in0.0 mm
08:40 AM 30.1°F-1.1°C 28.3°F-2.1°C 93% 2.0 mph N3.2 kmh N 6.0 mph9.7 kmh 24.79 in839.5 mb 0.00 in0.0 mm 0.00 in0.0 mm 0.00 in0.0 mm
08:35 AM 30.1°F-1.1°C 28.3°F-2.1°C 93% Calm Calm 7.0 mph11.3 kmh 24.79 in839.5 mb 0.00 in0.0 mm 0.00 in0.0 mm 0.00 in0.0 mm
08:29 AM 30.0°F-1.1°C 28.2°F-2.1°C 93% 4.0 mph NNE6.4 kmh NNE 10.0 mph16.1 kmh 24.79 in839.5 mb 0.00 in0.0 mm 0.00 in0.0 mm 0.00 in0.0 mm
08:25 AM 30.0°F-1.1°C 28.2°F-2.1°C 93% 3.0 mph N4.8 kmh N 7.0 mph11.3 kmh 24.79 in839.5 mb 0.00 in0.0 mm 0.00 in0.0 mm 0.00 in0.0 mm
08:20 AM 29.9°F-1.2°C 28.1°F-2.2°C 93% 3.0 mph NW4.8 kmh NW 10.0 mph16.1 kmh 24.79 in839.5 mb 0.00 in0.0 mm 0.00 in0.0 mm 0.00 in0.0 mm
08:15 AM 29.8°F-1.2°C 28.0°F-2.2°C 93% 4.0 mph NNW6.4 kmh NNW 10.0 mph16.1 kmh 24.79 in839.5 mb 0.00 in0.0 mm 0.00 in0.0 mm 0.00 in0.0 mm
08:10 AM 29.7°F-1.3°C 27.9°F-2.3°C 93% 5.0 mph N8.0 kmh N 9.0 mph14.5 kmh 24.79 in839.5 mb 0.00 in0.0 mm 0.00 in0.0 mm 0.00 in0.0 mm
08:05 AM 29.6°F-1.3°C 27.8°F-2.3°C 93% 4.0 mph N6.4 kmh N 9.0 mph14.5 kmh 24.79 in839.5 mb 0.00 in0.0 mm 0.00 in0.0 mm 0.00 in0.0 mm
08:00 AM 29.4°F-1.4°C 27.6°F-2.4°C 93% 4.0 mph NNW6.4 kmh NNW 6.0 mph9.7 kmh 24.79 in839.5 mb 0.00 in0.0 mm 0.00 in0.0 mm 0.00 in0.0 mm
07:55 AM 29.2°F-1.6°C 27.4°F-2.6°C 93% 2.0 mph N3.2 kmh N 8.0 mph12.9 kmh 24.79 in839.5 mb 0.00 in0.0 mm 0.00 in0.0 mm 0.00 in0.0 mm
07:50 AM 29.1°F-1.6°C 27.3°F-2.6°C 93% 4.0 mph NNE6.4 kmh NNE 6.0 mph9.7 kmh 24.79 in839.5 mb 0.00 in0.0 mm 0.00 in0.0 mm 0.00 in0.0 mm
07:45 AM 29.0°F-1.7°C 27.2°F-2.7°C 93% 1.0 mph N1.6 kmh N 1.0 mph1.6 kmh 24.79 in839.5 mb 0.00 in0.0 mm 0.00 in0.0 mm 0.00 in0.0 mm
07:40 AM 28.9°F-1.7°C 27.1°F-2.7°C 93% 4.0 mph N6.4 kmh N 7.0 mph11.3 kmh 24.79 in839.5 mb 0.00 in0.0 mm 0.00 in0.0 mm 0.00 in0.0 mm
07:35 AM 28.9°F-1.7°C 27.1°F-2.7°C 93% 3.0 mph N4.8 kmh N 6.0 mph9.7 kmh 24.79 in839.5 mb 0.00 in0.0 mm 0.00 in0.0 mm 0.00 in0.0 mm
07:30 AM 28.8°F-1.8°C 27.0°F-2.8°C 93% 4.0 mph NW6.4 kmh NW 6.0 mph9.7 kmh 24.79 in839.5 mb 0.00 in0.0 mm 0.00 in0.0 mm 0.00 in0.0 mm
07:25 AM 28.8°F-1.8°C 27.0°F-2.8°C 93% 4.0 mph NNE6.4 kmh NNE 6.0 mph9.7 kmh 24.79 in839.5 mb 0.00 in0.0 mm 0.00 in0.0 mm 0.00 in0.0 mm
07:20 AM 28.7°F-1.8°C 26.9°F-2.8°C 93% 3.0 mph N4.8 kmh N 6.0 mph9.7 kmh 24.79 in839.5 mb 0.00 in0.0 mm 0.00 in0.0 mm 0.00 in0.0 mm
07:15 AM 28.7°F-1.8°C 26.9°F-2.8°C 93% 5.0 mph N8.0 kmh N 6.0 mph9.7 kmh 24.79 in839.5 mb 0.00 in0.0 mm 0.00 in0.0 mm 0.00 in0.0 mm
07:10 AM 28.6°F-1.9°C 26.8°F-2.9°C 93% 4.0 mph N6.4 kmh N 9.0 mph14.5 kmh 24.79 in839.5 mb 0.00 in0.0 mm 0.00 in0.0 mm 0.00 in0.0 mm
07:05 AM 28.5°F-1.9°C 26.7°F-2.9°C 93% 6.0 mph N9.7 kmh N 8.0 mph12.9 kmh 24.79 in839.5 mb 0.00 in0.0 mm 0.00 in0.0 mm 0.00 in0.0 mm
07:00 AM 28.5°F-1.9°C 26.7°F-2.9°C 93% 8.0 mph N12.9 kmh N 8.0 mph12.9 kmh 20.77 in703.4 mb 0.00 in0.0 mm 0.00 in0.0 mm 0.00 in0.0 mm
06:55 AM 28.5°F-1.9°C 26.7°F-2.9°C 93% 2.0 mph N3.2 kmh N 3.0 mph4.8 kmh 20.77 in703.4 mb 0.00 in0.0 mm 0.00 in0.0 mm 0.00 in0.0 mm
06:50 AM 28.5°F-1.9°C 26.7°F-2.9°C 93% 4.0 mph NNW6.4 kmh NNW 4.0 mph6.4 kmh 20.77 in703.4 mb 0.00 in0.0 mm 0.00 in0.0 mm 0.00 in0.0 mm
06:45 AM 28.5°F-1.9°C 26.7°F-2.9°C 93% 5.0 mph N8.0 kmh N 5.0 mph8.0 kmh 20.77 in703.4 mb 0.00 in0.0 mm 0.00 in0.0 mm 0.00 in0.0 mm
06:40 AM 28.4°F-2.0°C 26.6°F-3.0°C 93% 2.0 mph NNW3.2 kmh NNW 2.0 mph3.2 kmh 20.77 in703.4 mb 0.00 in0.0 mm 0.00 in0.0 mm 0.00 in0.0 mm
06:35 AM 28.4°F-2.0°C 26.6°F-3.0°C 93% 3.0 mph N4.8 kmh N 4.0 mph6.4 kmh 20.77 in703.4 mb 0.00 in0.0 mm 0.00 in0.0 mm 0.00 in0.0 mm
06:30 AM 28.4°F-2.0°C 26.6°F-3.0°C 93% 4.0 mph N6.4 kmh N 7.0 mph11.3 kmh 20.77 in703.4 mb 0.00 in0.0 mm 0.00 in0.0 mm 0.00 in0.0 mm
06:25 AM 28.3°F-2.1°C 26.5°F-3.1°C 93% 6.0 mph NE9.7 kmh NE 8.0 mph12.9 kmh 20.77 in703.4 mb 0.00 in0.0 mm 0.00 in0.0 mm 0.00 in0.0 mm
06:20 AM 28.3°F-2.1°C 26.5°F-3.1°C 93% 2.0 mph N3.2 kmh N 10.0 mph16.1 kmh 20.77 in703.4 mb 0.00 in0.0 mm 0.00 in0.0 mm 0.00 in0.0 mm
06:15 AM 28.2°F-2.1°C 26.4°F-3.1°C 93% 5.0 mph NNW8.0 kmh NNW 7.0 mph11.3 kmh 20.77 in703.4 mb 0.00 in0.0 mm 0.00 in0.0 mm 0.00 in0.0 mm
06:10 AM 28.1°F-2.2°C 26.1°F-3.3°C 92% 4.0 mph N6.4 kmh N 6.0 mph9.7 kmh 20.77 in703.4 mb 0.00 in0.0 mm 0.00 in0.0 mm 0.00 in0.0 mm
06:05 AM 28.1°F-2.2°C 26.1°F-3.3°C 92% 1.0 mph NNW1.6 kmh NNW 6.0 mph9.7 kmh 20.77 in703.4 mb 0.00 in0.0 mm 0.00 in0.0 mm 0.00 in0.0 mm
06:00 AM 28.1°F-2.2°C 26.1°F-3.3°C 92% 3.0 mph N4.8 kmh N 6.0 mph9.7 kmh 20.77 in703.4 mb 0.00 in0.0 mm 0.00 in0.0 mm 0.00 in0.0 mm
05:55 AM 28.1°F-2.2°C 26.1°F-3.3°C 92% 3.0 mph N4.8 kmh N 7.0 mph11.3 kmh 20.77 in703.4 mb 0.00 in0.0 mm 0.00 in0.0 mm 0.00 in0.0 mm
05:50 AM 28.1°F-2.2°C 26.1°F-3.3°C 92% 2.0 mph NNW3.2 kmh NNW 7.0 mph11.3 kmh 20.77 in703.4 mb 0.00 in0.0 mm 0.00 in0.0 mm 0.00 in0.0 mm
05:45 AM 28.1°F-2.2°C 26.1°F-3.3°C 92% 3.0 mph N4.8 kmh N 7.0 mph11.3 kmh 20.77 in703.4 mb 0.00 in0.0 mm 0.00 in0.0 mm 0.00 in0.0 mm
05:40 AM 28.1°F-2.2°C 26.1°F-3.3°C 92% 2.0 mph NNW3.2 kmh NNW 9.0 mph14.5 kmh 20.77 in703.4 mb 0.00 in0.0 mm 0.00 in0.0 mm 0.00 in0.0 mm
05:35 AM 28.1°F-2.2°C 26.1°F-3.3°C 92% 4.0 mph NNE6.4 kmh NNE 9.0 mph14.5 kmh 20.77 in703.4 mb 0.00 in0.0 mm 0.00 in0.0 mm 0.00 in0.0 mm
05:30 AM 28.1°F-2.2°C 26.1°F-3.3°C 92% 5.0 mph NNW8.0 kmh NNW 10.0 mph16.1 kmh 20.77 in703.4 mb 0.00 in0.0 mm 0.00 in0.0 mm 0.00 in0.0 mm
05:25 AM 28.1°F-2.2°C 26.1°F-3.3°C 92% 5.0 mph N8.0 kmh N 12.0 mph19.3 kmh 20.77 in703.4 mb 0.00 in0.0 mm 0.00 in0.0 mm 0.00 in0.0 mm
05:20 AM 28.1°F-2.2°C 26.1°F-3.3°C 92% 2.0 mph NW3.2 kmh NW 9.0 mph14.5 kmh 20.77 in703.4 mb 0.00 in0.0 mm 0.00 in0.0 mm 0.00 in0.0 mm
05:15 AM 28.1°F-2.2°C 26.1°F-3.3°C 92% 7.0 mph NW11.3 kmh NW 7.0 mph11.3 kmh 20.77 in703.4 mb 0.00 in0.0 mm 0.00 in0.0 mm 0.00 in0.0 mm
05:10 AM 28.1°F-2.2°C 26.1°F-3.3°C 92% 2.0 mph N3.2 kmh N 9.0 mph14.5 kmh 20.77 in703.4 mb 0.00 in0.0 mm 0.00 in0.0 mm 0.00 in0.0 mm
05:05 AM 28.1°F-2.2°C 26.1°F-3.3°C 92% 7.0 mph N11.3 kmh N 11.0 mph17.7 kmh 20.77 in703.4 mb 0.00 in0.0 mm 0.00 in0.0 mm 0.00 in0.0 mm
05:00 AM 28.2°F-2.1°C 26.2°F-3.2°C 92% 5.0 mph N8.0 kmh N 12.0 mph19.3 kmh 20.77 in703.4 mb 0.00 in0.0 mm 0.00 in0.0 mm 0.00 in0.0 mm
04:55 AM 28.2°F-2.1°C 26.2°F-3.2°C 92% 4.0 mph NNE6.4 kmh NNE 10.0 mph16.1 kmh 20.77 in703.4 mb 0.00 in0.0 mm 0.00 in0.0 mm 0.00 in0.0 mm
04:50 AM 28.3°F-2.1°C 26.3°F-3.2°C 92% 5.0 mph NNW8.0 kmh NNW 7.0 mph11.3 kmh 20.77 in703.4 mb 0.00 in0.0 mm 0.00 in0.0 mm 0.00 in0.0 mm
04:45 AM 28.3°F-2.1°C 26.3°F-3.2°C 92% 4.0 mph NE6.4 kmh NE 7.0 mph11.3 kmh 20.77 in703.4 mb 0.00 in0.0 mm 0.00 in0.0 mm 0.00 in0.0 mm
04:40 AM 28.2°F-2.1°C 26.2°F-3.2°C 92% 4.0 mph NW6.4 kmh NW 12.0 mph19.3 kmh 20.77 in703.4 mb 0.00 in0.0 mm 0.00 in0.0 mm 0.00 in0.0 mm
04:35 AM 28.3°F-2.1°C 26.3°F-3.2°C 92% 3.0 mph NNW4.8 kmh NNW 11.0 mph17.7 kmh 20.77 in703.4 mb 0.00 in0.0 mm 0.00 in0.0 mm 0.00 in0.0 mm
04:30 AM 28.3°F-2.1°C 26.3°F-3.2°C 92% 2.0 mph NE3.2 kmh NE 6.0 mph9.7 kmh 20.77 in703.4 mb 0.00 in0.0 mm 0.00 in0.0 mm 0.00 in0.0 mm
04:25 AM 28.2°F-2.1°C 26.2°F-3.2°C 92% 4.0 mph NNW6.4 kmh NNW 10.0 mph16.1 kmh 20.77 in703.4 mb 0.00 in0.0 mm 0.00 in0.0 mm 0.00 in0.0 mm
04:20 AM 28.2°F-2.1°C 26.2°F-3.2°C 92% 2.0 mph N3.2 kmh N 6.0 mph9.7 kmh 20.77 in703.4 mb 0.00 in0.0 mm 0.00 in0.0 mm 0.00 in0.0 mm
04:15 AM 28.3°F-2.1°C 26.3°F-3.2°C 92% 5.0 mph NNW8.0 kmh NNW 8.0 mph12.9 kmh 20.77 in703.4 mb 0.00 in0.0 mm 0.00 in0.0 mm 0.00 in0.0 mm
04:10 AM 28.3°F-2.1°C 26.3°F-3.2°C 92% 3.0 mph NNW4.8 kmh NNW 6.0 mph9.7 kmh 20.77 in703.4 mb 0.00 in0.0 mm 0.00 in0.0 mm 0.00 in0.0 mm
04:05 AM 28.3°F-2.1°C 26.3°F-3.2°C 92% 4.0 mph NNW6.4 kmh NNW 11.0 mph17.7 kmh 20.77 in703.4 mb 0.00 in0.0 mm 0.00 in0.0 mm 0.00 in0.0 mm
04:00 AM 28.2°F-2.1°C 26.2°F-3.2°C 92% 2.0 mph N3.2 kmh N 9.0 mph14.5 kmh 20.77 in703.4 mb 0.00 in0.0 mm 0.00 in0.0 mm 0.00 in0.0 mm
03:55 AM 28.2°F-2.1°C 26.2°F-3.2°C 92% 2.0 mph NW3.2 kmh NW 7.0 mph11.3 kmh 20.77 in703.4 mb 0.00 in0.0 mm 0.00 in0.0 mm 0.00 in0.0 mm
03:50 AM 28.2°F-2.1°C 26.2°F-3.2°C 92% 1.0 mph NW1.6 kmh NW 10.0 mph16.1 kmh 20.77 in703.4 mb 0.00 in0.0 mm 0.00 in0.0 mm 0.00 in0.0 mm
03:45 AM 28.2°F-2.1°C 26.2°F-3.2°C 92% 3.0 mph N4.8 kmh N 10.0 mph16.1 kmh 20.77 in703.4 mb 0.00 in0.0 mm 0.00 in0.0 mm 0.00 in0.0 mm
03:40 AM 28.2°F-2.1°C 26.2°F-3.2°C 92% 4.0 mph NW6.4 kmh NW 10.0 mph16.1 kmh 21.07 in713.5 mb 0.00 in0.0 mm 0.00 in0.0 mm 0.00 in0.0 mm
03:35 AM 28.2°F-2.1°C 26.2°F-3.2°C 92% 3.0 mph NW4.8 kmh NW 7.0 mph11.3 kmh 21.07 in713.5 mb 0.00 in0.0 mm 0.00 in0.0 mm 0.00 in0.0 mm
03:30 AM 28.2°F-2.1°C 26.2°F-3.2°C 92% 3.0 mph NW4.8 kmh NW 7.0 mph11.3 kmh 21.07 in713.5 mb 0.00 in0.0 mm 0.00 in0.0 mm 0.00 in0.0 mm
03:25 AM 28.2°F-2.1°C 26.2°F-3.2°C 92% 3.0 mph NW4.8 kmh NW 10.0 mph16.1 kmh 21.07 in713.5 mb 0.00 in0.0 mm 0.00 in0.0 mm 0.00 in0.0 mm
03:20 AM 28.2°F-2.1°C 26.2°F-3.2°C 92% 4.0 mph N6.4 kmh N 10.0 mph16.1 kmh 21.07 in713.5 mb 0.00 in0.0 mm 0.00 in0.0 mm 0.00 in0.0 mm
03:15 AM 28.3°F-2.1°C 26.3°F-3.2°C 92% 2.0 mph NW3.2 kmh NW 11.0 mph17.7 kmh 21.07 in713.5 mb 0.00 in0.0 mm 0.00 in0.0 mm 0.00 in0.0 mm
03:10 AM 28.2°F-2.1°C 26.2°F-3.2°C 92% 5.0 mph WNW8.0 kmh WNW 7.0 mph11.3 kmh 21.07 in713.5 mb 0.00 in0.0 mm 0.00 in0.0 mm 0.00 in0.0 mm
03:05 AM 28.2°F-2.1°C 26.2°F-3.2°C 92% 7.0 mph NW11.3 kmh NW 7.0 mph11.3 kmh 21.07 in713.5 mb 0.00 in0.0 mm 0.00 in0.0 mm 0.00 in0.0 mm
03:00 AM 28.2°F-2.1°C 26.2°F-3.2°C 92% 2.0 mph NNW3.2 kmh NNW 7.0 mph11.3 kmh 21.07 in713.5 mb 0.00 in0.0 mm 0.00 in0.0 mm 0.00 in0.0 mm
02:55 AM 28.2°F-2.1°C 26.2°F-3.2°C 92% 3.0 mph WNW4.8 kmh WNW 11.0 mph17.7 kmh 23.03 in779.9 mb 0.00 in0.0 mm 0.00 in0.0 mm 0.00 in0.0 mm
02:50 AM 28.1°F-2.2°C 26.1°F-3.3°C 92% 2.0 mph NW3.2 kmh NW 9.0 mph14.5 kmh 23.03 in779.9 mb 0.00 in0.0 mm 0.00 in0.0 mm 0.00 in0.0 mm
02:45 AM 28.1°F-2.2°C 26.1°F-3.3°C 92% 2.0 mph NW3.2 kmh NW 6.0 mph9.7 kmh 23.03 in779.9 mb 0.00 in0.0 mm 0.00 in0.0 mm 0.00 in0.0 mm
02:40 AM 28.1°F-2.2°C 26.1°F-3.3°C 92% 4.0 mph N6.4 kmh N 9.0 mph14.5 kmh 23.03 in779.9 mb 0.00 in0.0 mm 0.00 in0.0 mm 0.00 in0.0 mm
02:35 AM 28.1°F-2.2°C 26.1°F-3.3°C 92% 3.0 mph N4.8 kmh N 9.0 mph14.5 kmh 23.03 in779.9 mb 0.00 in0.0 mm 0.00 in0.0 mm 0.00 in0.0 mm
02:29 AM 28.1°F-2.2°C 26.1°F-3.3°C 92% 7.0 mph NW11.3 kmh NW 10.0 mph16.1 kmh 23.03 in779.9 mb 0.00 in0.0 mm 0.00 in0.0 mm 0.00 in0.0 mm
02:25 AM 28.1°F-2.2°C 26.1°F-3.3°C 92% 3.0 mph N4.8 kmh N 13.0 mph20.9 kmh 23.03 in779.9 mb 0.00 in0.0 mm 0.00 in0.0 mm 0.00 in0.0 mm
02:20 AM 28.1°F-2.2°C 26.1°F-3.3°C 92% 3.0 mph NW4.8 kmh NW 3.0 mph4.8 kmh 23.03 in779.9 mb 0.00 in0.0 mm 0.00 in0.0 mm 0.00 in0.0 mm
02:15 AM 28.1°F-2.2°C 26.1°F-3.3°C 92% 4.0 mph NNW6.4 kmh NNW 4.0 mph6.4 kmh 23.03 in779.9 mb 0.00 in0.0 mm 0.00 in0.0 mm 0.00 in0.0 mm
02:10 AM 28.1°F-2.2°C 26.1°F-3.3°C 92% 2.0 mph NNW3.2 kmh NNW 9.0 mph14.5 kmh 23.03 in779.9 mb 0.00 in0.0 mm 0.00 in0.0 mm 0.00 in0.0 mm
02:05 AM 28.1°F-2.2°C 26.1°F-3.3°C 92% 3.0 mph NW4.8 kmh NW 5.0 mph8.0 kmh 23.03 in779.9 mb 0.00 in0.0 mm 0.00 in0.0 mm 0.00 in0.0 mm
02:00 AM 28.2°F-2.1°C 26.2°F-3.2°C 92% 6.0 mph N9.7 kmh N 9.0 mph14.5 kmh 23.03 in779.9 mb 0.00 in0.0 mm 0.00 in0.0 mm 0.00 in0.0 mm
01:55 AM 28.2°F-2.1°C 26.2°F-3.2°C 92% 4.0 mph NNW6.4 kmh NNW 6.0 mph9.7 kmh 23.03 in779.9 mb 0.00 in0.0 mm 0.00 in0.0 mm 0.00 in0.0 mm
01:50 AM 28.3°F-2.1°C 26.3°F-3.2°C 92% 11.0 mph NNE17.7 kmh NNE 11.0 mph17.7 kmh 23.03 in779.9 mb 0.00 in0.0 mm 0.00 in0.0 mm 0.00 in0.0 mm
01:45 AM 28.4°F-2.0°C 26.4°F-3.1°C 92% 4.0 mph NW6.4 kmh NW 7.0 mph11.3 kmh 23.03 in779.9 mb 0.00 in0.0 mm 0.00 in0.0 mm 0.00 in0.0 mm
01:40 AM 28.4°F-2.0°C 26.4°F-3.1°C 92% 5.0 mph NNW8.0 kmh NNW 5.0 mph8.0 kmh 23.03 in779.9 mb 0.00 in0.0 mm 0.00 in0.0 mm 0.00 in0.0 mm
01:35 AM 28.4°F-2.0°C 26.6°F-3.0°C 93% 6.0 mph N9.7 kmh N 12.0 mph19.3 kmh 23.03 in779.9 mb 0.00 in0.0 mm 0.00 in0.0 mm 0.00 in0.0 mm
01:29 AM 28.4°F-2.0°C 26.6°F-3.0°C 93% 5.0 mph W8.0 kmh W 10.0 mph16.1 kmh 23.03 in779.9 mb 0.00 in0.0 mm 0.00 in0.0 mm 0.00 in0.0 mm
01:25 AM 28.4°F-2.0°C 26.6°F-3.0°C 93% 7.0 mph WNW11.3 kmh WNW 7.0 mph11.3 kmh 23.03 in779.9 mb 0.00 in0.0 mm 0.00 in0.0 mm 0.00 in0.0 mm
01:20 AM 28.3°F-2.1°C 26.5°F-3.1°C 93% 9.0 mph N14.5 kmh N 12.0 mph19.3 kmh 23.03 in779.9 mb 0.00 in0.0 mm 0.00 in0.0 mm 0.00 in0.0 mm
01:15 AM 28.3°F-2.1°C 26.3°F-3.2°C 92% 4.0 mph NW6.4 kmh NW 6.0 mph9.7 kmh 23.03 in779.9 mb 0.00 in0.0 mm 0.00 in0.0 mm 0.00 in0.0 mm
01:10 AM 28.3°F-2.1°C 26.3°F-3.2°C 92% 4.0 mph NNW6.4 kmh NNW 4.0 mph6.4 kmh 22.27 in754.1 mb 0.00 in0.0 mm 0.00 in0.0 mm 0.00 in0.0 mm
01:05 AM 28.3°F-2.1°C 26.3°F-3.2°C 92% 5.0 mph NW8.0 kmh NW 5.0 mph8.0 kmh 22.27 in754.1 mb 0.00 in0.0 mm 0.00 in0.0 mm 0.00 in0.0 mm
01:00 AM 28.3°F-2.1°C 26.3°F-3.2°C 92% 4.0 mph NNW6.4 kmh NNW 4.0 mph6.4 kmh 22.27 in754.1 mb 0.00 in0.0 mm 0.00 in0.0 mm 0.00 in0.0 mm
12:55 AM 28.3°F-2.1°C 26.3°F-3.2°C 92% 3.0 mph N4.8 kmh N 3.0 mph4.8 kmh 22.27 in754.1 mb 0.00 in0.0 mm 0.00 in0.0 mm 0.00 in0.0 mm
12:50 AM 28.4°F-2.0°C 26.4°F-3.1°C 92% 4.0 mph NNW6.4 kmh NNW 4.0 mph6.4 kmh 17.94 in607.5 mb 0.00 in0.0 mm 0.00 in0.0 mm 0.00 in0.0 mm
12:45 AM 28.4°F-2.0°C 26.4°F-3.1°C 92% 6.0 mph NW9.7 kmh NW 6.0 mph9.7 kmh 17.94 in607.5 mb 0.00 in0.0 mm 0.00 in0.0 mm 0.00 in0.0 mm
12:40 AM 28.5°F-1.9°C 26.5°F-3.1°C 92% 4.0 mph NNW6.4 kmh NNW 5.0 mph8.0 kmh 17.94 in607.5 mb 0.00 in0.0 mm 0.00 in0.0 mm 0.00 in0.0 mm
12:35 AM 28.5°F-1.9°C 26.5°F-3.1°C 92% 4.0 mph N6.4 kmh N 5.0 mph8.0 kmh 17.94 in607.5 mb 0.00 in0.0 mm 0.00 in0.0 mm 0.00 in0.0 mm
12:30 AM 28.6°F-1.9°C 26.6°F-3.0°C 92% 11.0 mph N17.7 kmh N 11.0 mph17.7 kmh 17.94 in607.5 mb 0.00 in0.0 mm 0.00 in0.0 mm 0.00 in0.0 mm
12:25 AM 28.7°F-1.8°C 26.7°F-2.9°C 92% 5.0 mph NW8.0 kmh NW 10.0 mph16.1 kmh 17.94 in607.5 mb 0.00 in0.0 mm 0.00 in0.0 mm 0.00 in0.0 mm
12:20 AM 28.7°F-1.8°C 26.7°F-2.9°C 92% 13.0 mph WNW20.9 kmh WNW 13.0 mph20.9 kmh 17.94 in607.5 mb 0.00 in0.0 mm 0.00 in0.0 mm 0.00 in0.0 mm
12:15 AM 28.7°F-1.8°C 26.7°F-2.9°C 92% 11.0 mph E17.7 kmh E 11.0 mph17.7 kmh 17.94 in607.5 mb 0.00 in0.0 mm 0.00 in0.0 mm 0.00 in0.0 mm
12:10 AM 28.7°F-1.8°C 26.7°F-2.9°C 92% 4.0 mph N6.4 kmh N 4.0 mph6.4 kmh 17.94 in607.5 mb 0.00 in0.0 mm 0.00 in0.0 mm 0.00 in0.0 mm
12:05 AM 28.7°F-1.8°C 26.7°F-2.9°C 92% 3.0 mph NNW4.8 kmh NNW 3.0 mph4.8 kmh 17.94 in607.5 mb 0.00 in0.0 mm 0.00 in0.0 mm 0.00 in0.0 mm
12:00 AM 28.7°F-1.8°C 26.7°F-2.9°C 92% 3.0 mph NNW4.8 kmh NNW 7.0 mph11.3 kmh 17.94 in607.5 mb 0.00 in0.0 mm 0.00 in0.0 mm 0.00 in0.0 mm